createdAt,value
2023-04-24T00:00:09.918Z,86
2023-04-24T00:00:34.900Z,86
2023-04-24T00:01:06.862Z,86
2023-04-24T00:01:36.652Z,86
2023-04-24T00:02:08.084Z,86
2023-04-24T00:02:39.156Z,86
2023-04-24T00:03:10.103Z,86
2023-04-24T00:03:41.130Z,86
2023-04-24T00:04:12.298Z,86
2023-04-24T00:04:43.143Z,86
2023-04-24T00:05:14.012Z,86
2023-04-24T00:05:44.848Z,86
2023-04-24T00:06:16.915Z,86
2023-04-24T00:06:46.780Z,86
2023-04-24T00:07:18.274Z,86
2023-04-24T00:07:49.044Z,86
2023-04-24T00:08:19.881Z,86
2023-04-24T00:08:51.210Z,86
2023-04-24T00:09:21.796Z,86
2023-04-24T00:09:53.046Z,85
2023-04-24T00:10:23.923Z,85
2023-04-24T00:10:55.416Z,85
2023-04-24T00:11:26.974Z,85
2023-04-24T00:11:56.880Z,85
2023-04-24T00:12:27.992Z,85
2023-04-24T00:12:59.286Z,85
2023-04-24T00:13:29.696Z,85
2023-04-24T00:14:00.827Z,86
2023-04-24T00:14:31.997Z,86
2023-04-24T00:15:19.665Z,86
2023-04-24T00:15:34.164Z,86
2023-04-24T00:16:04.905Z,86
2023-04-24T00:16:36.803Z,86
2023-04-24T00:17:06.966Z,86
2023-04-24T00:17:38.172Z,86
2023-04-24T00:18:08.997Z,86
2023-04-24T00:18:40.017Z,86
2023-04-24T00:19:10.855Z,86
2023-04-24T00:19:42.222Z,86
2023-04-24T00:20:13.027Z,86
2023-04-24T00:20:44.050Z,86
2023-04-24T00:21:14.785Z,86
2023-04-24T00:21:46.739Z,86
2023-04-24T00:22:16.844Z,86
2023-04-24T00:22:47.968Z,86
2023-04-24T00:23:18.908Z,86
2023-04-24T00:23:49.694Z,86
2023-04-24T00:24:21.056Z,86
2023-04-24T00:24:51.737Z,86
2023-04-24T00:25:23.046Z,86
2023-04-24T00:25:54.043Z,86
2023-04-24T00:26:24.991Z,86
2023-04-24T00:26:56.821Z,86
2023-04-24T00:27:26.678Z,86
2023-04-24T00:27:57.820Z,86
2023-04-24T00:28:28.900Z,86
2023-04-24T00:28:59.866Z,86
2023-04-24T00:29:30.823Z,86
2023-04-24T00:30:08.730Z,86
2023-04-24T00:30:33.070Z,86
2023-04-24T00:31:04.018Z,86
2023-04-24T00:31:35.083Z,86
2023-04-24T00:32:06.872Z,87
2023-04-24T00:32:36.776Z,86
2023-04-24T00:33:08.148Z,87
2023-04-24T00:33:39.153Z,87
2023-04-24T00:34:10.066Z,87
2023-04-24T00:34:41.056Z,87
2023-04-24T00:35:12.356Z,87
2023-04-24T00:35:43.007Z,87
2023-04-24T00:36:14.165Z,87
2023-04-24T00:36:44.840Z,87
2023-04-24T00:37:17.181Z,87
2023-04-24T00:37:47.012Z,87
2023-04-24T00:38:18.098Z,87
2023-04-24T00:38:49.092Z,87
2023-04-24T00:39:19.994Z,87
2023-04-24T00:39:51.024Z,87
2023-04-24T00:41:29.960Z,87
2023-04-24T00:41:56.356Z,87
2023-04-24T00:42:27.152Z,87
2023-04-24T00:42:57.436Z,87
2023-04-24T00:43:28.099Z,87
2023-04-24T00:44:00.255Z,87
2023-04-24T00:44:30.842Z,87
2023-04-24T00:45:04.389Z,87
2023-04-24T00:45:32.528Z,88
2023-04-24T00:46:03.316Z,88
2023-04-24T00:46:37.943Z,88
2023-04-24T00:47:05.325Z,88
2023-04-24T00:47:37.094Z,88
2023-04-24T00:48:07.151Z,88
2023-04-24T00:48:39.099Z,88
2023-04-24T00:49:09.171Z,88
2023-04-24T00:49:40.642Z,88
2023-04-24T00:50:11.279Z,88
2023-04-24T00:50:41.898Z,88
2023-04-24T00:51:13.542Z,88
2023-04-24T00:51:44.009Z,88
2023-04-24T00:52:15.198Z,88
2023-04-24T00:52:47.416Z,88
2023-04-24T00:53:19.823Z,88
2023-04-24T00:53:48.420Z,88
2023-04-24T00:54:19.704Z,88
2023-04-24T00:54:50.705Z,88
2023-04-24T00:55:21.535Z,88
2023-04-24T00:55:52.279Z,88
2023-04-24T00:56:24.999Z,88
2023-04-24T00:56:54.937Z,88
2023-04-24T00:57:25.238Z,88
2023-04-24T00:57:57.364Z,89
2023-04-24T00:58:27.262Z,89
2023-04-24T00:58:58.285Z,89
2023-04-24T00:59:29.680Z,89
2023-04-24T01:00:03.849Z,89
2023-04-24T01:00:31.254Z,89
2023-04-24T01:01:02.311Z,89
2023-04-24T01:01:33.137Z,89
2023-04-24T01:02:04.537Z,89
2023-04-24T01:02:35.297Z,89
2023-04-24T01:03:07.483Z,89
2023-04-24T01:03:38.881Z,89
2023-04-24T01:04:08.899Z,89
2023-04-24T01:04:39.094Z,89
2023-04-24T01:05:11.088Z,89
2023-04-24T01:05:41.381Z,89
2023-04-24T01:06:12.299Z,89
2023-04-24T01:06:43.140Z,89
2023-04-24T01:07:13.995Z,89
2023-04-24T01:07:45.278Z,89
2023-04-24T01:08:17.652Z,89
2023-04-24T01:08:47.521Z,89
2023-04-24T01:09:18.625Z,89
2023-04-24T01:09:49.420Z,89
2023-04-24T01:10:20.311Z,89
2023-04-24T01:10:51.605Z,89
2023-04-24T01:11:22.310Z,89
2023-04-24T01:11:52.958Z,88
2023-04-24T01:12:24.873Z,88
2023-04-24T01:12:54.998Z,88
2023-04-24T01:13:28.257Z,88
2023-04-24T01:13:57.514Z,88
2023-04-24T01:14:28.339Z,88
2023-04-24T01:14:59.432Z,88
2023-04-24T01:15:33.536Z,88
2023-04-24T01:16:01.642Z,88
2023-04-24T01:16:32.287Z,88
2023-04-24T01:17:03.461Z,88
2023-04-24T01:17:34.718Z,88
2023-04-24T01:18:05.111Z,88
2023-04-24T01:18:37.690Z,88
2023-04-24T01:19:07.214Z,88
2023-04-24T01:19:38.341Z,88
2023-04-24T01:20:09.405Z,88
2023-04-24T01:20:40.440Z,88
2023-04-24T01:21:11.410Z,88
2023-04-24T01:21:42.275Z,88
2023-04-24T01:22:13.321Z,88
2023-04-24T01:22:44.159Z,88
2023-04-24T01:23:15.957Z,88
2023-04-24T01:23:47.086Z,88
2023-04-24T01:24:18.669Z,88
2023-04-24T01:24:48.413Z,89
2023-04-24T01:25:19.650Z,89
2023-04-24T01:25:50.008Z,89
2023-04-24T01:26:21.788Z,89
2023-04-24T01:26:52.409Z,89
2023-04-24T01:27:23.490Z,89
2023-04-24T01:27:54.449Z,89
2023-04-24T01:28:25.170Z,89
2023-04-24T01:28:57.177Z,89
2023-04-24T01:29:27.010Z,89
2023-04-24T01:29:58.160Z,89
2023-04-24T01:30:32.102Z,89
2023-04-24T01:31:00.572Z,89
2023-04-24T01:31:31.577Z,89
2023-04-24T01:32:02.321Z,89
2023-04-24T01:32:33.866Z,89
2023-04-24T01:33:04.366Z,89
2023-04-24T01:33:35.541Z,89
2023-04-24T01:34:07.451Z,90
2023-04-24T01:34:37.503Z,90
2023-04-24T01:35:08.478Z,90
2023-04-24T01:35:39.459Z,90
2023-04-24T01:36:10.311Z,90
2023-04-24T01:36:41.553Z,90
2023-04-24T01:37:12.527Z,90
2023-04-24T01:37:43.225Z,90
2023-04-24T01:38:14.437Z,90
2023-04-24T01:38:45.636Z,90
2023-04-24T01:39:17.458Z,90
2023-04-24T01:39:47.388Z,90
2023-04-24T01:40:18.630Z,90
2023-04-24T01:40:49.309Z,90
2023-04-24T01:41:20.950Z,90
2023-04-24T01:41:51.526Z,90
2023-04-24T01:42:22.372Z,90
2023-04-24T01:42:53.237Z,90
2023-04-24T01:43:24.092Z,90
2023-04-24T01:43:55.099Z,90
2023-04-24T01:44:27.506Z,90
2023-04-24T01:44:57.485Z,90
2023-04-24T01:45:31.049Z,90
2023-04-24T01:45:59.033Z,90
2023-04-24T01:46:30.719Z,90
2023-04-24T01:47:01.226Z,90
2023-04-24T01:47:32.662Z,90
2023-04-24T01:48:03.286Z,90
2023-04-24T01:48:34.275Z,90
2023-04-24T01:49:05.510Z,90
2023-04-24T01:49:37.381Z,90
2023-04-24T01:50:07.690Z,90
2023-04-24T01:50:38.449Z,90
2023-04-24T01:51:09.493Z,91
2023-04-24T01:51:40.437Z,91
2023-04-24T01:52:11.251Z,91
2023-04-24T01:52:42.496Z,91
2023-04-24T01:53:13.029Z,91
2023-04-24T01:53:44.275Z,91
2023-04-24T01:54:15.272Z,91
2023-04-24T01:54:47.354Z,91
2023-04-24T01:55:17.141Z,91
2023-04-24T01:55:48.363Z,91
2023-04-24T01:56:19.711Z,91
2023-04-24T01:56:49.970Z,91
2023-04-24T01:57:21.409Z,91
2023-04-24T01:57:52.336Z,91
2023-04-24T01:58:23.330Z,91
2023-04-24T01:58:54.542Z,91
2023-04-24T01:59:24.961Z,91
2023-04-24T01:59:57.318Z,91
2023-04-24T02:00:30.163Z,91
2023-04-24T02:00:58.426Z,91
2023-04-24T02:01:29.259Z,91
2023-04-24T02:02:00.558Z,91
2023-04-24T02:02:31.820Z,91
2023-04-24T02:03:02.633Z,91
2023-04-24T02:03:34.205Z,91
2023-04-24T02:04:04.605Z,91
2023-04-24T02:04:35.537Z,91
2023-04-24T02:05:07.246Z,91
2023-04-24T02:05:37.268Z,91
2023-04-24T02:06:12.448Z,91
2023-04-24T02:06:39.346Z,91
2023-04-24T02:07:11.362Z,91
2023-04-24T02:07:41.641Z,91
2023-04-24T02:08:12.281Z,91
2023-04-24T02:08:43.390Z,92
2023-04-24T02:09:14.116Z,92
2023-04-24T02:09:45.281Z,92
2023-04-24T02:10:17.395Z,92
2023-04-24T02:10:47.398Z,92
2023-04-24T02:11:18.956Z,92
2023-04-24T02:11:49.286Z,92
2023-04-24T02:12:20.548Z,92
2023-04-24T02:12:51.028Z,92
2023-04-24T02:13:22.446Z,92
2023-04-24T02:13:53.427Z,92
2023-04-24T02:14:24.323Z,92
2023-04-24T02:14:55.290Z,92
2023-04-24T02:15:31.076Z,92
2023-04-24T02:15:57.688Z,92
2023-04-24T02:16:28.250Z,92
2023-04-24T02:16:58.989Z,92
2023-04-24T02:17:30.760Z,92
2023-04-24T02:18:01.291Z,92
2023-04-24T02:18:32.732Z,92
2023-04-24T02:19:03.421Z,92
2023-04-24T02:19:34.402Z,92
2023-04-24T02:20:05.433Z,92
2023-04-24T02:20:37.083Z,92
2023-04-24T02:21:07.192Z,92
2023-04-24T02:21:38.030Z,92
2023-04-24T02:22:09.681Z,92
2023-04-24T02:22:40.143Z,92
2023-04-24T02:23:11.090Z,92
2023-04-24T02:23:42.549Z,92
2023-04-24T02:24:13.106Z,92
2023-04-24T02:24:44.608Z,92
2023-04-24T02:25:15.014Z,92
2023-04-24T02:25:47.371Z,92
2023-04-24T02:26:17.401Z,92
2023-04-24T02:26:48.410Z,92
2023-04-24T02:27:18.983Z,92
2023-04-24T02:27:50.253Z,92
2023-04-24T02:28:21.359Z,92
2023-04-24T02:28:52.360Z,93
2023-04-24T02:29:23.382Z,93
2023-04-24T02:29:54.388Z,93
2023-04-24T02:30:29.065Z,93
2023-04-24T02:30:57.135Z,93
2023-04-24T02:31:27.200Z,93
2023-04-24T02:31:58.211Z,92
2023-04-24T02:32:29.246Z,92
2023-04-24T02:33:00.411Z,93
2023-04-24T02:33:31.774Z,93
2023-04-24T02:34:02.704Z,93
2023-04-24T02:34:33.293Z,93
2023-04-24T02:35:04.375Z,93
2023-04-24T02:35:35.169Z,93
2023-04-24T02:36:07.838Z,93
2023-04-24T02:36:37.256Z,92
2023-04-24T02:37:08.473Z,92
2023-04-24T02:37:39.816Z,93
2023-04-24T02:38:10.365Z,93
2023-04-24T02:38:41.264Z,93
2023-04-24T02:39:12.411Z,93
2023-04-24T02:39:43.616Z,93
2023-04-24T02:40:14.833Z,93
2023-04-24T02:40:45.352Z,93
2023-04-24T02:41:17.596Z,93
2023-04-24T02:41:47.434Z,93
2023-04-24T02:42:18.427Z,93
2023-04-24T02:42:49.491Z,93
2023-04-24T02:43:21.486Z,93
2023-04-24T02:43:51.481Z,93
2023-04-24T02:44:22.532Z,93
2023-04-24T02:44:53.466Z,93
2023-04-24T02:45:28.342Z,93
2023-04-24T02:45:55.338Z,93
2023-04-24T02:46:27.153Z,93
2023-04-24T02:46:57.400Z,93
2023-04-24T02:47:28.447Z,93
2023-04-24T02:47:59.388Z,93
2023-04-24T02:48:30.977Z,93
2023-04-24T02:49:01.520Z,93
2023-04-24T02:49:32.301Z,93
2023-04-24T02:50:03.598Z,93
2023-04-24T02:50:34.348Z,93
2023-04-24T02:51:05.769Z,93
2023-04-24T02:51:37.351Z,93
2023-04-24T02:52:07.368Z,93
2023-04-24T02:52:38.377Z,93
2023-04-24T02:53:09.362Z,93
2023-04-24T02:53:40.168Z,93
2023-04-24T02:54:11.334Z,93
2023-04-24T02:54:42.123Z,93
2023-04-24T02:55:14.590Z,93
2023-04-24T02:55:44.449Z,93
2023-04-24T02:56:15.697Z,93
2023-04-24T02:56:47.528Z,93
2023-04-24T02:57:17.123Z,94
2023-04-24T02:57:48.238Z,94
2023-04-24T02:58:19.294Z,94
2023-04-24T02:58:50.310Z,94
2023-04-24T02:59:21.368Z,94
2023-04-24T02:59:52.466Z,94
2023-04-24T03:00:26.419Z,94
2023-04-24T03:00:54.845Z,94
2023-04-24T03:01:25.073Z,94
2023-04-24T03:01:57.252Z,94
2023-04-24T03:02:27.370Z,94
2023-04-24T03:02:58.433Z,94
2023-04-24T03:03:29.543Z,94
2023-04-24T03:04:00.597Z,94
2023-04-24T03:04:32.819Z,94
2023-04-24T03:05:02.509Z,94
2023-04-24T03:05:33.321Z,94
2023-04-24T03:06:04.917Z,94
2023-04-24T03:06:35.120Z,95
2023-04-24T03:07:07.355Z,95
2023-04-24T03:07:37.635Z,95
2023-04-24T03:08:08.148Z,95
2023-04-24T03:08:39.496Z,95
2023-04-24T03:09:10.487Z,95
2023-04-24T03:09:41.623Z,95
2023-04-24T03:10:12.375Z,95
2023-04-24T03:10:44.020Z,95
2023-04-24T03:11:14.442Z,95
2023-04-24T03:11:45.680Z,95
2023-04-24T03:12:17.595Z,95
2023-04-24T03:12:47.589Z,95
2023-04-24T03:13:18.403Z,95
2023-04-24T03:13:49.426Z,95
2023-04-24T03:14:22.136Z,95
2023-04-24T03:14:51.210Z,95
2023-04-24T03:15:25.350Z,95
2023-04-24T03:15:53.359Z,95
2023-04-24T03:16:24.309Z,95
2023-04-24T03:16:55.321Z,95
2023-04-24T03:17:27.436Z,95
2023-04-24T03:17:57.305Z,95
2023-04-24T03:18:28.129Z,95
2023-04-24T03:18:59.538Z,95
2023-04-24T03:19:30.316Z,95
2023-04-24T03:20:01.234Z,95
2023-04-24T03:20:32.627Z,95
2023-04-24T03:21:03.452Z,95
2023-04-24T03:21:34.361Z,95
2023-04-24T03:22:06.017Z,95
2023-04-24T03:22:37.381Z,95
2023-04-24T03:23:07.189Z,95
2023-04-24T03:23:38.484Z,95
2023-04-24T03:24:10.719Z,95
2023-04-24T03:24:40.562Z,95
2023-04-24T03:25:11.760Z,95
2023-04-24T03:25:42.386Z,95
2023-04-24T03:26:13.206Z,95
2023-04-24T03:26:44.784Z,95
2023-04-24T03:27:15.001Z,95
2023-04-24T03:27:47.619Z,95
2023-04-24T03:28:17.276Z,95
2023-04-24T03:28:48.473Z,95
2023-04-24T03:29:19.485Z,95
2023-04-24T03:29:51.273Z,95
2023-04-24T03:30:24.206Z,95
2023-04-24T03:30:52.389Z,96
2023-04-24T03:31:23.635Z,96
2023-04-24T03:31:54.667Z,96
2023-04-24T03:32:25.497Z,95
2023-04-24T03:32:57.912Z,96
2023-04-24T03:33:27.431Z,95
2023-04-24T03:33:58.424Z,95
2023-04-24T03:34:29.776Z,96
2023-04-24T03:35:00.695Z,96
2023-04-24T03:35:31.700Z,96
2023-04-24T03:36:02.380Z,96
2023-04-24T03:36:34.368Z,96
2023-04-24T03:37:04.516Z,96
2023-04-24T03:40:11.656Z,96
2023-04-24T03:40:41.237Z,96
2023-04-24T03:41:12.590Z,96
2023-04-24T03:41:43.811Z,96
2023-04-24T03:42:14.555Z,96
2023-04-24T03:42:45.656Z,96
2023-04-24T03:43:17.262Z,96
2023-04-24T03:43:47.813Z,96
2023-04-24T03:44:18.559Z,96
2023-04-24T03:44:49.749Z,96
2023-04-24T03:45:23.676Z,96
2023-04-24T03:45:51.569Z,96
2023-04-24T03:46:22.811Z,96
2023-04-24T03:46:53.203Z,96
2023-04-24T03:47:24.457Z,96
2023-04-24T03:47:55.249Z,96
2023-04-24T03:48:27.354Z,96
2023-04-24T03:48:57.521Z,96
2023-04-24T03:49:28.663Z,96
2023-04-24T03:49:59.457Z,96
2023-04-24T03:50:29.974Z,96
2023-04-24T03:51:01.099Z,96
2023-04-24T03:51:32.709Z,96
2023-04-24T03:52:03.205Z,96
2023-04-24T03:52:34.550Z,96
2023-04-24T03:53:05.142Z,96
2023-04-24T03:53:37.417Z,96
2023-04-24T03:54:07.502Z,96
2023-04-24T03:54:38.388Z,96
2023-04-24T03:55:09.268Z,96
2023-04-24T03:55:40.045Z,96
2023-04-24T03:56:11.264Z,96
2023-04-24T03:56:42.100Z,96
2023-04-24T03:57:13.339Z,96
2023-04-24T03:57:44.353Z,96
2023-04-24T03:58:15.076Z,96
2023-04-24T03:58:47.041Z,96
2023-04-24T03:59:17.715Z,96
2023-04-24T03:59:48.466Z,96
2023-04-24T04:00:22.358Z,96
2023-04-24T04:00:50.429Z,96
2023-04-24T04:01:22.144Z,96
2023-04-24T04:01:52.572Z,96
2023-04-24T04:02:23.513Z,96
2023-04-24T04:02:54.482Z,96
2023-04-24T04:03:25.592Z,96
2023-04-24T04:03:57.309Z,96
2023-04-24T04:04:27.865Z,96
2023-04-24T04:04:58.373Z,96
2023-04-24T04:05:29.244Z,96
2023-04-24T04:06:03.026Z,96
2023-04-24T04:06:31.893Z,96
2023-04-24T04:07:02.218Z,96
2023-04-24T04:07:33.928Z,96
2023-04-24T04:08:04.582Z,96
2023-04-24T04:08:35.456Z,96
2023-04-24T04:09:07.664Z,96
2023-04-24T04:09:37.361Z,96
2023-04-24T04:10:08.533Z,96
2023-04-24T04:10:39.444Z,96
2023-04-24T04:11:12.046Z,97
2023-04-24T04:11:41.182Z,96
2023-04-24T04:12:11.898Z,96
2023-04-24T04:12:42.984Z,96
2023-04-24T04:13:14.088Z,97
2023-04-24T04:13:45.032Z,97
2023-04-24T04:14:17.520Z,97
2023-04-24T04:14:47.553Z,96
2023-04-24T04:15:21.481Z,96
2023-04-24T04:15:49.616Z,97
2023-04-24T04:16:20.332Z,97
2023-04-24T04:16:54.617Z,97
2023-04-24T04:17:22.212Z,97
2023-04-24T04:17:53.124Z,97
2023-04-24T04:18:24.286Z,97
2023-04-24T04:18:55.365Z,97
2023-04-24T04:19:27.474Z,97
2023-04-24T04:19:57.251Z,97
2023-04-24T04:20:28.126Z,97
2023-04-24T04:20:59.348Z,97
2023-04-24T04:21:30.229Z,97
2023-04-24T04:22:01.098Z,97
2023-04-24T04:22:32.525Z,97
2023-04-24T04:23:03.110Z,97
2023-04-24T04:23:34.485Z,97
2023-04-24T04:24:05.435Z,97
2023-04-24T04:24:37.023Z,97
2023-04-24T04:25:11.748Z,97
2023-04-24T04:25:38.648Z,97
2023-04-24T04:26:08.999Z,97
2023-04-24T04:26:40.245Z,97
2023-04-24T04:27:10.870Z,97
2023-04-24T04:27:42.039Z,97
2023-04-24T04:28:12.810Z,97
2023-04-24T04:28:43.970Z,97
2023-04-24T04:29:16.308Z,97
2023-04-24T04:29:47.207Z,97
2023-04-24T04:30:19.920Z,97
2023-04-24T04:30:48.114Z,97
2023-04-24T04:31:19.021Z,97
2023-04-24T04:31:50.327Z,97
2023-04-24T04:32:21.220Z,97
2023-04-24T04:32:52.190Z,97
2023-04-24T04:33:22.846Z,97
2023-04-24T04:33:53.899Z,97
2023-04-24T04:34:25.313Z,97
2023-04-24T04:34:57.182Z,97
2023-04-24T04:35:26.877Z,97
2023-04-24T04:35:58.057Z,97
2023-04-24T04:36:29.011Z,97
2023-04-24T04:37:00.045Z,97
2023-04-24T04:37:33.163Z,97
2023-04-24T04:38:02.088Z,97
2023-04-24T04:38:33.106Z,97
2023-04-24T04:39:04.371Z,97
2023-04-24T04:39:35.329Z,97
2023-04-24T04:40:07.475Z,97
2023-04-24T04:40:37.020Z,97
2023-04-24T04:41:08.056Z,97
2023-04-24T04:41:39.156Z,97
2023-04-24T04:42:10.151Z,97
2023-04-24T04:42:41.445Z,97
2023-04-24T04:43:12.238Z,97
2023-04-24T04:43:42.827Z,97
2023-04-24T04:44:13.974Z,97
2023-04-24T04:44:45.049Z,97
2023-04-24T04:45:20.210Z,97
2023-04-24T04:45:47.557Z,97
2023-04-24T04:46:18.828Z,97
2023-04-24T04:46:48.887Z,97
2023-04-24T04:47:20.173Z,97
2023-04-24T04:47:51.478Z,97
2023-04-24T04:48:22.480Z,97
2023-04-24T04:48:53.434Z,97
2023-04-24T04:49:24.287Z,97
2023-04-24T04:49:55.685Z,97
2023-04-24T04:50:27.534Z,97
2023-04-24T04:50:57.218Z,97
2023-04-24T04:51:28.372Z,97
2023-04-24T04:51:59.288Z,97
2023-04-24T04:52:30.262Z,97
2023-04-24T04:53:01.668Z,97
2023-04-24T04:53:32.405Z,97
2023-04-24T04:54:03.730Z,97
2023-04-24T04:54:34.828Z,97
2023-04-24T04:55:05.715Z,97
2023-04-24T04:55:37.575Z,97
2023-04-24T04:56:07.683Z,97
2023-04-24T04:56:39.839Z,97
2023-04-24T04:57:09.786Z,97
2023-04-24T04:57:40.430Z,97
2023-04-24T04:58:11.584Z,97
2023-04-24T04:58:42.520Z,97
2023-04-24T04:59:15.255Z,98
2023-04-24T04:59:45.240Z,98
2023-04-24T05:00:19.226Z,98
2023-04-24T05:00:47.851Z,98
2023-04-24T05:01:17.544Z,98
2023-04-24T05:01:48.518Z,98
2023-04-24T05:02:19.455Z,98
2023-04-24T05:02:51.117Z,98
2023-04-24T05:03:21.962Z,98
2023-04-24T05:03:52.502Z,98
2023-04-24T05:04:23.654Z,98
2023-04-24T05:04:54.500Z,98
2023-04-24T05:05:25.506Z,98
2023-04-24T05:05:57.499Z,98
2023-04-24T05:06:28.663Z,98
2023-04-24T05:06:58.646Z,98
2023-04-24T05:07:29.341Z,98
2023-04-24T05:08:00.232Z,98
2023-04-24T05:08:31.423Z,98
2023-04-24T05:09:02.693Z,98
2023-04-24T05:09:33.596Z,98
2023-04-24T05:10:04.491Z,98
2023-04-24T05:10:35.708Z,98
2023-04-24T05:11:07.427Z,98
2023-04-24T05:11:37.589Z,98
2023-04-24T05:12:08.490Z,98
2023-04-24T05:12:39.921Z,98
2023-04-24T05:13:10.250Z,97
2023-04-24T05:13:41.518Z,97
2023-04-24T05:14:12.332Z,97
2023-04-24T05:14:43.454Z,97
2023-04-24T05:15:18.022Z,97
2023-04-24T05:15:45.583Z,97
2023-04-24T05:16:17.575Z,97
2023-04-24T05:16:47.718Z,97
2023-04-24T05:17:18.455Z,97
2023-04-24T05:17:49.755Z,97
2023-04-24T05:18:20.766Z,97
2023-04-24T05:18:51.564Z,97
2023-04-24T05:19:22.804Z,97
2023-04-24T05:19:53.844Z,97
2023-04-24T05:20:24.391Z,97
2023-04-24T05:20:55.890Z,97
2023-04-24T05:21:27.773Z,97
2023-04-24T05:21:57.322Z,97
2023-04-24T05:22:28.356Z,97
2023-04-24T05:22:59.610Z,97
2023-04-24T05:23:30.889Z,97
2023-04-24T05:24:01.728Z,97
2023-04-24T05:24:32.376Z,97
2023-04-24T05:25:03.536Z,97
2023-04-24T05:25:34.374Z,97
2023-04-24T05:26:07.568Z,97
2023-04-24T05:26:37.932Z,97
2023-04-24T05:27:07.648Z,96
2023-04-24T05:27:38.332Z,96
2023-04-24T05:28:09.247Z,96
2023-04-24T05:28:40.412Z,96
2023-04-24T05:29:11.138Z,96
2023-04-24T05:29:42.473Z,96
2023-04-24T05:30:16.085Z,96
2023-04-24T05:30:44.175Z,96
2023-04-24T05:31:15.741Z,96
2023-04-24T05:31:47.741Z,96
2023-04-24T05:32:17.386Z,96
2023-04-24T05:32:48.674Z,96
2023-04-24T05:33:19.710Z,96
2023-04-24T05:33:50.634Z,96
2023-04-24T05:34:21.391Z,96
2023-04-24T05:34:52.970Z,96
2023-04-24T05:35:23.725Z,96
2023-04-24T05:35:54.209Z,96
2023-04-24T05:36:25.523Z,96
2023-04-24T05:36:57.582Z,96
2023-04-24T05:37:29.957Z,96
2023-04-24T05:37:58.666Z,96
2023-04-24T05:38:29.370Z,96
2023-04-24T05:39:00.483Z,96
2023-04-24T05:39:31.439Z,96
2023-04-24T05:40:02.442Z,96
2023-04-24T05:40:33.608Z,96
2023-04-24T05:41:04.609Z,96
2023-04-24T05:41:35.721Z,96
2023-04-24T05:42:07.716Z,96
2023-04-24T05:42:37.995Z,96
2023-04-24T05:43:08.593Z,96
2023-04-24T05:43:39.639Z,96
2023-04-24T05:44:10.393Z,96
2023-04-24T05:44:41.213Z,96
2023-04-24T05:45:14.972Z,96
2023-04-24T05:45:43.092Z,96
2023-04-24T05:46:14.349Z,96
2023-04-24T05:46:45.448Z,96
2023-04-24T05:47:17.941Z,96
2023-04-24T05:47:48.677Z,96
2023-04-24T05:48:18.478Z,96
2023-04-24T05:48:49.466Z,96
2023-04-24T05:49:20.656Z,96
2023-04-24T05:49:51.279Z,96
2023-04-24T05:50:22.196Z,96
2023-04-24T05:50:53.262Z,96
2023-04-24T05:51:24.337Z,96
2023-04-24T05:51:55.405Z,96
2023-04-24T05:52:27.496Z,96
2023-04-24T05:52:57.211Z,96
2023-04-24T05:53:28.634Z,96
2023-04-24T05:53:59.686Z,96
2023-04-24T05:54:31.681Z,96
2023-04-24T05:55:01.179Z,96
2023-04-24T05:55:32.628Z,96
2023-04-24T05:56:03.447Z,96
2023-04-24T05:56:34.591Z,96
2023-04-24T05:57:05.330Z,96
2023-04-24T05:57:37.398Z,96
2023-04-24T05:58:07.635Z,96
2023-04-24T05:58:38.402Z,96
2023-04-24T05:59:09.137Z,96
2023-04-24T05:59:40.591Z,96
2023-04-24T06:00:14.147Z,96
2023-04-24T06:00:42.226Z,96
2023-04-24T06:01:13.616Z,96
2023-04-24T06:01:44.328Z,96
2023-04-24T06:02:15.475Z,96
2023-04-24T06:02:47.807Z,96
2023-04-24T06:03:18.140Z,96
2023-04-24T06:03:48.621Z,96
2023-04-24T06:04:19.902Z,96
2023-04-24T06:04:50.609Z,96
2023-04-24T06:05:21.631Z,96
2023-04-24T06:05:53.936Z,96
2023-04-24T06:06:24.067Z,96
2023-04-24T06:06:54.907Z,96
2023-04-24T06:07:26.089Z,96
2023-04-24T06:07:57.885Z,96
2023-04-24T06:08:27.590Z,96
2023-04-24T06:08:58.361Z,96
2023-04-24T06:09:29.344Z,96
2023-04-24T06:10:00.277Z,96
2023-04-24T06:10:31.671Z,96
2023-04-24T06:11:04.419Z,96
2023-04-24T06:11:33.845Z,96
2023-04-24T06:12:04.636Z,96
2023-04-24T06:12:35.373Z,96
2023-04-24T06:13:07.137Z,96
2023-04-24T06:13:37.660Z,95
2023-04-24T06:14:08.451Z,95
2023-04-24T06:14:39.503Z,95
2023-04-24T06:15:13.040Z,95
2023-04-24T06:15:41.562Z,95
2023-04-24T06:16:12.788Z,95
2023-04-24T06:16:43.631Z,95
2023-04-24T06:17:14.626Z,95
2023-04-24T06:17:45.696Z,95
2023-04-24T06:18:17.684Z,95
2023-04-24T06:18:47.972Z,94
2023-04-24T06:19:18.997Z,94
2023-04-24T06:19:49.649Z,94
2023-04-24T06:20:20.782Z,94
2023-04-24T06:20:51.618Z,94
2023-04-24T06:21:22.549Z,94
2023-04-24T06:21:53.783Z,94
2023-04-24T06:22:24.733Z,94
2023-04-24T06:22:56.332Z,94
2023-04-24T06:23:27.894Z,93
2023-04-24T06:23:57.335Z,93
2023-04-24T06:24:29.030Z,93
2023-04-24T06:24:59.526Z,93
2023-04-24T06:25:30.769Z,93
2023-04-24T06:26:01.760Z,93
2023-04-24T06:26:32.900Z,92
2023-04-24T06:27:03.792Z,92
2023-04-24T06:27:34.972Z,92
2023-04-24T06:28:05.701Z,92
2023-04-24T06:28:37.748Z,91
2023-04-24T06:29:07.849Z,91
2023-04-24T06:29:38.889Z,90
2023-04-24T06:30:12.673Z,91
2023-04-24T06:30:41.113Z,91
2023-04-24T06:31:11.683Z,90
2023-04-24T06:31:43.239Z,90
2023-04-24T06:32:14.360Z,90
2023-04-24T06:32:46.636Z,90
2023-04-24T06:33:21.053Z,90
2023-04-24T06:33:48.020Z,90
2023-04-24T06:34:17.908Z,90
2023-04-24T06:34:48.947Z,90
2023-04-24T06:35:19.918Z,90
2023-04-24T06:35:50.918Z,91
2023-04-24T06:36:21.632Z,91
2023-04-24T06:36:52.857Z,90
2023-04-24T06:37:24.557Z,90
2023-04-24T06:37:54.546Z,90
2023-04-24T06:38:25.631Z,90
2023-04-24T06:38:57.951Z,91
2023-04-24T06:39:28.368Z,91
2023-04-24T06:39:59.102Z,91
2023-04-24T06:40:29.892Z,91
2023-04-24T06:41:00.694Z,91
2023-04-24T06:41:31.968Z,92
2023-04-24T06:42:02.917Z,92
2023-04-24T06:42:33.819Z,92
2023-04-24T06:43:05.110Z,92
2023-04-24T06:43:36.121Z,92
2023-04-24T06:44:07.805Z,92
2023-04-24T06:44:37.874Z,92
2023-04-24T06:45:11.913Z,92
2023-04-24T06:45:39.735Z,92
2023-04-24T06:46:10.856Z,92
2023-04-24T06:46:42.068Z,91
2023-04-24T06:47:12.725Z,92
2023-04-24T06:47:44.251Z,92
2023-04-24T06:48:16.801Z,91
2023-04-24T06:48:45.987Z,91
2023-04-24T06:49:17.992Z,90
2023-04-24T06:49:48.595Z,90
2023-04-24T06:50:19.872Z,90
2023-04-24T06:50:49.980Z,88
2023-04-24T06:51:22.806Z,88
2023-04-24T06:51:51.990Z,88
2023-04-24T06:52:22.752Z,89
2023-04-24T06:52:54.040Z,89
2023-04-24T06:53:24.750Z,89
2023-04-24T06:53:55.963Z,89
2023-04-24T06:54:27.805Z,87
2023-04-24T06:54:57.840Z,86
2023-04-24T06:55:28.956Z,86
2023-04-24T06:56:00.042Z,85
2023-04-24T06:56:30.707Z,85
2023-04-24T06:57:01.933Z,86
2023-04-24T06:57:33.437Z,84
2023-04-24T06:58:03.856Z,84
2023-04-24T06:58:35.013Z,85
2023-04-24T06:59:05.846Z,85
2023-04-24T06:59:37.799Z,86
2023-04-24T07:00:11.574Z,86
2023-04-24T07:00:38.874Z,86
2023-04-24T07:01:10.110Z,87
2023-04-24T07:01:41.683Z,86
2023-04-24T07:02:11.952Z,86
2023-04-24T07:02:43.202Z,86
2023-04-24T07:03:45.162Z,83
2023-04-24T07:04:15.605Z,82
2023-04-24T07:04:48.343Z,82
2023-04-24T07:05:17.638Z,82
2023-04-24T07:05:48.835Z,82
2023-04-24T07:06:19.957Z,82
2023-04-24T07:06:50.567Z,83
2023-04-24T07:07:25.333Z,83
2023-04-24T07:07:52.718Z,82
2023-04-24T07:08:24.129Z,80
2023-04-24T07:08:54.793Z,81
2023-04-24T07:09:25.787Z,81
2023-04-24T07:09:57.443Z,80
2023-04-24T07:10:27.442Z,80
2023-04-24T07:10:58.408Z,80
2023-04-24T07:11:30.228Z,81
2023-04-24T07:12:00.697Z,81
2023-04-24T07:12:31.591Z,80
2023-04-24T07:13:02.815Z,80
2023-04-24T07:13:34.339Z,80
2023-04-24T07:14:05.244Z,80
2023-04-24T07:14:35.919Z,80
2023-04-24T07:15:10.949Z,79
2023-04-24T07:15:37.967Z,79
2023-04-24T07:16:08.816Z,81
2023-04-24T07:16:40.064Z,81
2023-04-24T07:17:10.708Z,81
2023-04-24T07:17:42.326Z,80
2023-04-24T07:18:13.465Z,80
2023-04-24T07:18:43.929Z,81
2023-04-24T07:19:14.699Z,82
2023-04-24T07:19:46.063Z,82
2023-04-24T07:20:18.233Z,82
2023-04-24T07:20:48.069Z,82
2023-04-24T07:21:18.821Z,82
2023-04-24T07:21:49.972Z,82
2023-04-24T07:22:20.703Z,82
2023-04-24T07:22:51.915Z,83
2023-04-24T07:23:22.685Z,83
2023-04-24T07:23:54.021Z,83
2023-04-24T07:24:27.411Z,83
2023-04-24T07:24:55.500Z,83
2023-04-24T07:25:27.450Z,83
2023-04-24T07:25:58.117Z,82